Time;durP1;ratioP1;P1;durP2;ratioP2;P2;SDS_P1;SDS_P2;PMS_P1;PMS_P2;Temp;Humidity;BMP_temperature;BMP_pressure;BME280_temperature;BME280_humidity;BME280_pressure;Samples;Min_cycle;Max_cycle;Signal;HPM_P1;HPM_P2
2023/12/07 00:00:36;;;;;;;28.33;20.88;;;6.60;99.90;;;;;;5011255;28;20382;-81
2023/12/07 00:03:01;;;;;;;17.98;12.73;;;6.70;99.90;;;;;;5029426;28;20045;-81
2023/12/07 00:05:27;;;;;;;17.63;13.77;;;6.70;99.90;;;;;;5029286;28;20030;-81
2023/12/07 00:07:53;;;;;;;20.50;16.77;;;6.00;99.90;;;;;;5028824;28;20504;-81
2023/12/07 00:10:18;;;;;;;28.95;21.38;;;6.60;99.90;;;;;;5028312;28;20033;-79
2023/12/07 00:12:44;;;;;;;17.60;10.20;;;6.60;99.90;;;;;;5028823;28;20033;-81
2023/12/07 00:15:10;;;;;;;23.75;18.00;;;6.60;99.90;;;;;;5011070;28;20045;-81
2023/12/07 00:17:35;;;;;;;28.30;22.35;;;6.70;99.90;;;;;;5028855;28;20025;-79
2023/12/07 00:20:01;;;;;;;23.85;18.95;;;6.70;99.90;;;;;;5029679;28;20076;-81
2023/12/07 00:22:28;;;;;;;24.80;17.58;;;6.70;99.90;;;;;;5028329;28;20029;-81
2023/12/07 00:24:54;;;;;;;18.25;14.90;;;3.80;99.90;;;;;;5030999;28;20255;-81
2023/12/07 00:27:19;;;;;;;19.35;14.75;;;6.70;99.90;;;;;;5032622;28;20409;-81
2023/12/07 00:29:45;;;;;;;20.88;15.02;;;6.70;99.90;;;;;;5032379;28;20023;-82
2023/12/07 00:32:10;;;;;;;21.30;14.93;;;6.70;99.90;;;;;;5031640;28;20061;-81
2023/12/07 00:34:36;;;;;;;16.35;7.68;;;6.60;99.90;;;;;;5014292;28;20039;-81
2023/12/07 00:37:03;;;;;;;13.13;11.38;;;6.70;99.90;;;;;;5033366;28;20025;-81
2023/12/07 00:39:28;;;;;;;17.30;11.93;;;6.70;99.90;;;;;;5032431;28;20045;-82
2023/12/07 00:41:54;;;;;;;17.00;11.50;;;5.70;99.90;;;;;;5032099;28;20349;-81
2023/12/07 00:44:19;;;;;;;22.98;15.10;;;6.80;99.90;;;;;;5031857;28;20026;-82
2023/12/07 00:46:45;;;;;;;19.55;13.95;;;6.30;99.90;;;;;;5032228;28;20481;-81
2023/12/07 00:49:10;;;;;;;19.33;13.23;;;6.90;99.90;;;;;;5031816;28;20100;-81
2023/12/07 00:51:36;;;;;;;10.25;6.20;;;6.70;99.90;;;;;;5031589;28;20092;-81
2023/12/07 00:54:02;;;;;;;7.13;6.40;;;6.80;99.90;;;;;;5015212;28;20025;-81
2023/12/07 00:56:27;;;;;;;13.65;9.18;;;6.70;99.90;;;;;;5031940;28;20034;-80
2023/12/07 00:58:53;;;;;;;25.95;15.10;;;6.70;99.90;;;;;;5031597;28;20053;-81
2023/12/07 01:01:18;;;;;;;19.48;12.50;;;6.70;99.90;;;;;;5031939;28;20037;-81
2023/12/07 01:03:44;;;;;;;13.77;8.38;;;6.70;99.90;;;;;;5031073;28;20489;-81
2023/12/07 01:06:11;;;;;;;17.73;11.05;;;6.80;99.90;;;;;;5031939;28;20037;-81
2023/12/07 01:08:37;;;;;;;16.27;11.82;;;6.80;99.90;;;;;;5031957;28;20021;-80
2023/12/07 01:11:06;;;;;;;13.15;10.77;;;6.80;99.90;;;;;;5032576;28;20460;-81
2023/12/07 01:13:31;;;;;;;10.32;6.75;;;6.80;99.90;;;;;;5032280;28;20108;-81
2023/12/07 01:15:57;;;;;;;10.30;8.30;;;6.80;99.90;;;;;;5013938;28;20025;-86
2023/12/07 01:18:23;;;;;;;18.58;9.15;;;6.80;99.90;;;;;;5031747;28;20100;-81
2023/12/07 01:20:48;;;;;;;17.00;13.05;;;6.80;99.90;;;;;;5030929;28;20413;-81
2023/12/07 01:23:14;;;;;;;16.73;13.38;;;6.80;99.90;;;;;;5031284;28;20382;-81
2023/12/07 01:25:40;;;;;;;17.67;11.27;;;6.80;99.90;;;;;;5013767;28;20022;-80
2023/12/07 01:28:05;;;;;;;13.32;10.88;;;6.00;99.90;;;;;;5031835;28;20032;-81
2023/12/07 01:30:31;;;;;;;11.23;9.73;;;6.80;99.90;;;;;;5031477;28;20026;-81
2023/12/07 01:32:57;;;;;;;13.55;11.07;;;10.40;99.90;;;;;;5031505;28;20233;-81
2023/12/07 01:35:22;;;;;;;17.50;13.32;;;6.80;99.90;;;;;;5030488;28;20437;-80
2023/12/07 01:37:48;;;;;;;15.93;12.55;;;6.80;99.90;;;;;;5031100;28;20026;-80
2023/12/07 01:40:14;;;;;;;18.48;14.98;;;6.80;99.90;;;;;;5012747;28;20026;-80
2023/12/07 01:42:40;;;;;;;18.77;14.60;;;6.90;99.90;;;;;;5031199;28;20022;-80
2023/12/07 01:45:07;;;;;;;10.73;8.32;;;6.80;99.90;;;;;;5032033;28;20022;-85
2023/12/07 01:47:35;;;;;;;16.27;14.15;;;6.80;99.90;;;;;;5031181;28;20103;-80
2023/12/07 01:50:04;;;;;;;13.60;11.38;;;6.70;99.90;;;;;;5030736;28;20118;-80
2023/12/07 01:52:31;;;;;;;16.92;13.85;;;6.80;99.90;;;;;;5031180;28;20041;-81
2023/12/07 01:54:57;;;;;;;24.52;15.88;;;6.80;99.90;;;;;;5030453;28;20025;-80
2023/12/07 01:57:24;;;;;;;21.98;16.27;;;6.80;99.90;;;;;;5030438;28;20036;-80
2023/12/07 01:59:50;;;;;;;21.20;16.45;;;6.90;99.90;;;;;;5013180;28;20024;-80
2023/12/07 02:02:16;;;;;;;24.23;16.73;;;6.50;99.90;;;;;;5013058;28;20393;-80
2023/12/07 02:04:42;;;;;;;23.05;18.20;;;6.80;99.90;;;;;;5030585;28;20053;-81
2023/12/07 02:07:08;;;;;;;21.27;19.20;;;6.90;99.90;;;;;;5013534;28;20029;-80
2023/12/07 02:09:33;;;;;;;19.80;17.67;;;6.80;99.90;;;;;;5030477;28;20484;-80
2023/12/07 02:12:00;;;;;;;31.40;23.13;;;6.80;99.90;;;;;;5029843;28;20551;-80
2023/12/07 02:14:26;;;;;;;27.48;23.85;;;6.80;99.90;;;;;;5030666;28;20089;-80
2023/12/07 02:17:00;;;;;;;24.08;21.50;;;6.80;99.90;;;;;;5030675;28;20087;-80
2023/12/07 02:19:40;;;;;;;36.70;29.17;;;6.80;99.90;;;;;;5011321;28;20030;-80
2023/12/07 02:22:17;;;;;;;21.30;19.23;;;6.80;99.90;;;;;;5011320;28;20032;-80
2023/12/07 02:24:52;;;;;;;32.28;27.60;;;6.80;99.90;;;;;;5010776;28;20030;-80
2023/12/07 02:27:17;;;;;;;39.13;29.13;;;6.80;99.90;;;;;;5025914;28;20026;-80
2023/12/07 02:29:43;;;;;;;24.63;21.70;;;6.80;99.90;;;;;;5030514;28;20033;-80
2023/12/07 02:32:09;;;;;;;28.85;25.90;;;6.80;99.90;;;;;;5031040;28;20037;-80
2023/12/07 02:34:34;;;;;;;35.15;28.75;;;6.80;99.90;;;;;;5030262;28;20024;-80
2023/12/07 02:37:02;;;;;;;28.70;25.67;;;5.30;99.90;;;;;;5030449;28;20480;-80
2023/12/07 02:39:28;;;;;;;40.33;31.75;;;6.80;99.90;;;;;;5029638;28;20539;-80
2023/12/07 02:41:55;;;;;;;38.30;30.25;;;6.80;99.90;;;;;;5012365;28;20025;-80
2023/12/07 02:44:20;;;;;;;33.70;27.50;;;6.80;99.90;;;;;;5012381;28;20079;-80
2023/12/07 02:46:46;;;;;;;12.90;7.65;;;6.70;99.90;;;;;;5029756;28;20022;-80
2023/12/07 02:49:12;;;;;;;14.82;13.20;;;6.80;99.90;;;;;;5029991;28;20397;-80
2023/12/07 02:51:37;;;;;;;21.05;18.83;;;7.40;99.90;;;;;;5026007;28;20089;-80
2023/12/07 02:54:03;;;;;;;27.73;22.50;;;6.80;99.90;;;;;;5026744;28;20030;-80
2023/12/07 02:56:28;;;;;;;24.88;21.90;;;6.80;99.90;;;;;;5022362;28;20033;-80
2023/12/07 02:58:54;;;;;;;30.38;24.08;;;6.80;99.90;;;;;;5029836;28;20026;-80
2023/12/07 03:01:19;;;;;;;28.27;23.50;;;6.80;99.90;;;;;;5029229;28;20029;-80
2023/12/07 03:03:45;;;;;;;19.30;17.27;;;6.90;99.90;;;;;;5029670;28;20508;-80
2023/12/07 03:06:11;;;;;;;27.30;24.55;;;6.80;99.90;;;;;;5030494;28;20025;-80
2023/12/07 03:08:36;;;;;;;25.33;22.45;;;4.40;99.90;;;;;;5019048;28;20033;-80
2023/12/07 03:11:02;;;;;;;29.52;25.65;;;6.60;99.90;;;;;;5029517;28;20269;-80
2023/12/07 03:13:27;;;;;;;31.23;27.15;;;6.80;99.90;;;;;;5029611;28;20029;-80
2023/12/07 03:15:53;;;;;;;34.38;25.75;;;6.80;99.90;;;;;;5029532;28;20512;-80
2023/12/07 03:18:18;;;;;;;31.35;27.67;;;6.90;99.90;;;;;;5029454;28;20025;-80
2023/12/07 03:20:44;;;;;;;35.03;30.08;;;6.90;99.90;;;;;;5029562;28;20029;-80
2023/12/07 03:23:09;;;;;;;31.50;27.63;;;6.80;99.90;;;;;;5042894;28;20040;-80
2023/12/07 03:25:35;;;;;;;31.63;27.13;;;7.30;99.90;;;;;;5043758;28;20053;-80
2023/12/07 03:28:01;;;;;;;42.92;32.95;;;6.90;99.90;;;;;;5029357;28;20029;-80
2023/12/07 03:30:26;;;;;;;34.95;29.15;;;6.90;99.90;;;;;;5028845;28;20029;-80
2023/12/07 03:32:52;;;;;;;20.23;15.95;;;6.90;99.90;;;;;;5028778;28;20038;-81
2023/12/07 03:35:17;;;;;;;22.75;20.33;;;6.90;99.90;;;;;;5028848;28;20025;-80
2023/12/07 03:37:43;;;;;;;26.50;23.70;;;6.90;99.90;;;;;;5028619;28;20504;-81
2023/12/07 03:40:09;;;;;;;13.63;12.38;;;8.10;99.90;;;;;;5033187;28;20401;-81
2023/12/07 03:42:35;;;;;;;27.08;24.30;;;6.90;99.90;;;;;;5027382;28;20127;-81
2023/12/07 03:45:00;;;;;;;37.33;28.05;;;6.90;99.90;;;;;;5027003;28;20026;-80
2023/12/07 03:47:27;;;;;;;25.40;22.75;;;6.90;99.90;;;;;;5030341;28;20485;-81
2023/12/07 03:49:52;;;;;;;36.63;29.70;;;7.00;99.90;;;;;;5029145;28;20021;-81
2023/12/07 03:52:18;;;;;;;30.75;26.00;;;7.00;99.90;;;;;;5027154;28;20378;-80
2023/12/07 03:54:43;;;;;;;31.15;27.75;;;7.00;99.90;;;;;;5010025;28;20029;-80
2023/12/07 03:57:09;;;;;;;24.48;22.15;;;6.70;99.90;;;;;;5027643;28;20029;-81
2023/12/07 03:59:36;;;;;;;7.93;3.50;;;7.00;99.90;;;;;;5009934;28;20060;-85
2023/12/07 04:02:02;;;;;;;25.85;22.73;;;7.00;99.90;;;;;;5030427;28;20488;-81
2023/12/07 04:04:27;;;;;;;21.75;13.85;;;7.00;99.90;;;;;;5029077;28;20053;-86
2023/12/07 04:06:53;;;;;;;27.80;20.13;;;7.00;99.90;;;;;;5027890;28;20144;-86
2023/12/07 04:09:19;;;;;;;24.10;21.58;;;7.00;99.90;;;;;;5009975;28;20033;-85
2023/12/07 04:11:46;;;;;;;23.02;20.65;;;7.00;99.90;;;;;;5028766;28;20068;-82
2023/12/07 04:14:12;;;;;;;23.67;21.30;;;7.00;99.90;;;;;;5029108;28;20101;-85
2023/12/07 04:16:37;;;;;;;28.38;25.40;;;7.00;99.90;;;;;;5023456;28;20529;-86
2023/12/07 04:19:03;;;;;;;33.40;27.90;;;7.00;99.90;;;;;;5028668;28;20033;-87
2023/12/07 04:21:28;;;;;;;34.92;27.38;;;7.00;99.90;;;;;;5028542;28;20088;-85
2023/12/07 04:23:54;;;;;;;34.58;28.42;;;7.00;99.90;;;;;;5028130;28;20029;-81
2023/12/07 04:26:19;;;;;;;33.13;28.13;;;7.00;99.90;;;;;;5027667;28;20044;-80
2023/12/07 04:28:45;;;;;;;17.33;15.75;;;7.00;99.90;;;;;;5028741;28;20053;-86
2023/12/07 04:31:11;;;;;;;31.55;28.02;;;6.40;99.90;;;;;;5028485;28;20048;-81
2023/12/07 04:33:36;;;;;;;37.03;29.63;;;7.40;99.90;;;;;;5027166;28;20048;-86
2023/12/07 04:36:04;;;;;;;31.67;24.58;;;7.10;99.90;;;;;;5027055;28;20371;-86
2023/12/07 04:38:30;;;;;;;23.75;19.63;;;7.10;99.90;;;;;;5030615;28;20013;-86
2023/12/07 04:40:55;;;;;;;18.80;13.88;;;7.10;99.90;;;;;;5031513;28;20441;-85
2023/12/07 04:43:21;;;;;;;36.60;29.33;;;7.10;99.90;;;;;;5027561;28;20029;-85
2023/12/07 04:45:46;;;;;;;20.75;18.23;;;7.30;99.90;;;;;;5028644;28;20030;-85
2023/12/07 04:48:12;;;;;;;18.23;16.38;;;7.10;99.90;;;;;;5010915;28;20088;-86
2023/12/07 04:50:37;;;;;;;18.80;16.90;;;7.10;99.90;;;;;;5026375;28;20116;-80
2023/12/07 04:53:03;;;;;;;19.60;16.25;;;7.10;99.90;;;;;;5027772;28;20083;-83
2023/12/07 04:55:29;;;;;;;24.98;19.50;;;7.10;99.90;;;;;;5009800;28;20486;-81
2023/12/07 04:57:54;;;;;;;22.48;20.02;;;7.10;99.90;;;;;;5028017;28;20033;-81
2023/12/07 05:00:21;;;;;;;16.42;14.23;;;7.10;99.90;;;;;;5028487;28;20018;-81
2023/12/07 05:02:46;;;;;;;18.98;15.60;;;7.10;99.90;;;;;;5028654;28;20034;-84
2023/12/07 05:05:12;;;;;;;19.50;17.58;;;7.10;99.90;;;;;;5010395;28;20091;-86
2023/12/07 05:07:38;;;;;;;22.45;20.17;;;7.10;99.90;;;;;;5010592;28;20330;-81
2023/12/07 05:10:04;;;;;;;19.05;15.60;;;7.10;99.90;;;;;;5029000;28;20109;-81
2023/12/07 05:12:30;;;;;;;24.05;19.95;;;7.10;99.90;;;;;;5030612;28;20034;-81
2023/12/07 05:14:55;;;;;;;23.08;20.63;;;7.10;99.90;;;;;;5031419;28;20029;-80
2023/12/07 05:17:21;;;;;;;20.42;16.40;;;7.10;99.90;;;;;;5031445;28;20037;-83
2023/12/07 05:19:46;;;;;;;18.98;17.10;;;7.20;99.90;;;;;;5032382;28;20096;-81
2023/12/07 05:22:13;;;;;;;31.77;24.15;;;7.10;99.90;;;;;;5031574;28;20032;-81
2023/12/07 05:24:39;;;;;;;24.95;22.27;;;7.10;99.90;;;;;;5031722;28;20438;-81
2023/12/07 05:27:04;;;;;;;43.33;28.63;;;7.20;99.90;;;;;;5030605;28;20037;-82
2023/12/07 05:29:30;;;;;;;33.85;26.35;;;7.10;99.90;;;;;;5031448;28;20025;-82
2023/12/07 05:31:55;;;;;;;32.38;25.20;;;7.20;99.90;;;;;;5031214;28;20128;-82
2023/12/07 05:34:21;;;;;;;30.25;26.77;;;6.40;99.90;;;;;;5031432;28;20470;-80
2023/12/07 05:36:47;;;;;;;30.73;27.10;;;7.20;99.90;;;;;;5030536;28;20036;-85
2023/12/07 05:39:13;;;;;;;34.50;27.05;;;7.10;99.90;;;;;;5031323;28;20035;-82
2023/12/07 05:41:38;;;;;;;25.50;21.90;;;7.20;99.90;;;;;;5051257;28;20444;-80
2023/12/07 05:44:04;;;;;;;34.47;27.90;;;7.10;99.90;;;;;;5051156;28;20021;-80
2023/12/07 05:46:30;;;;;;;10.95;9.25;;;7.10;99.90;;;;;;5051262;28;20025;-84
2023/12/07 05:48:56;;;;;;;19.70;15.20;;;7.10;99.90;;;;;;5051048;28;20052;-85
2023/12/07 05:51:23;;;;;;;20.75;18.70;;;7.10;99.90;;;;;;5039697;28;20041;-84
2023/12/07 05:53:49;;;;;;;18.70;16.83;;;7.10;99.90;;;;;;5048747;28;20447;-84
2023/12/07 05:56:21;;;;;;;25.77;23.05;;;7.10;99.90;;;;;;5033274;28;20100;-80
2023/12/07 05:58:48;;;;;;;29.83;26.02;;;8.00;99.90;;;;;;5019546;28;20022;-80
2023/12/07 06:01:17;;;;;;;29.60;26.05;;;7.10;99.90;;;;;;5024269;28;20029;-81
2023/12/07 06:03:43;;;;;;;29.08;24.85;;;7.10;99.90;;;;;;5033886;28;20036;-80
2023/12/07 06:06:10;;;;;;;35.97;29.38;;;7.00;99.90;;;;;;5038949;28;20033;-80
2023/12/07 06:08:39;;;;;;;42.97;31.77;;;7.00;99.90;;;;;;5044461;28;20051;-80
2023/12/07 06:11:05;;;;;;;34.80;28.45;;;6.80;99.90;;;;;;5039009;28;20463;-82
2023/12/07 06:13:31;;;;;;;44.75;32.72;;;6.20;99.90;;;;;;5012381;28;20117;-80
2023/12/07 06:15:57;;;;;;;39.47;29.80;;;7.00;99.90;;;;;;5030704;28;20385;-84
2023/12/07 06:18:22;;;;;;;29.77;26.52;;;6.90;99.90;;;;;;5030720;28;20485;-80
2023/12/07 06:20:48;;;;;;;46.13;33.50;;;7.00;99.90;;;;;;5031519;28;20032;-80
2023/12/07 06:23:13;;;;;;;30.13;24.65;;;6.90;99.90;;;;;;5029903;28;20105;-86
2023/12/07 06:25:39;;;;;;;50.50;35.47;;;7.40;99.90;;;;;;5012727;28;20033;-83
2023/12/07 06:28:05;;;;;;;46.53;33.67;;;6.90;99.90;;;;;;5030251;28;20478;-80
2023/12/07 06:30:31;;;;;;;42.60;32.03;;;6.90;99.90;;;;;;5030344;28;20029;-79
2023/12/07 06:32:57;;;;;;;43.17;31.75;;;6.90;99.90;;;;;;5030357;28;20022;-80
2023/12/07 06:35:23;;;;;;;39.47;30.40;;;6.90;99.90;;;;;;5030822;28;20030;-80
2023/12/07 06:37:48;;;;;;;41.03;31.58;;;6.90;99.90;;;;;;5031109;28;20022;-80
2023/12/07 06:40:14;;;;;;;17.63;15.88;;;6.90;99.90;;;;;;5030297;28;20036;-80
2023/12/07 06:42:40;;;;;;;28.30;25.25;;;6.90;99.90;;;;;;5030146;28;20025;-80
2023/12/07 06:45:10;;;;;;;27.90;23.33;;;6.90;99.90;;;;;;5030058;28;20029;-82
2023/12/07 06:47:36;;;;;;;39.10;30.75;;;6.90;99.90;;;;;;5030190;28;20025;-80
2023/12/07 06:50:02;;;;;;;19.13;17.23;;;6.90;99.90;;;;;;5030028;28;20482;-80
2023/12/07 06:52:28;;;;;;;36.03;28.10;;;6.90;99.90;;;;;;5029914;28;20030;-80
2023/12/07 06:54:53;;;;;;;27.10;22.75;;;6.80;99.90;;;;;;5030178;28;20048;-79
2023/12/07 06:57:19;;;;;;;27.98;25.10;;;6.80;99.90;;;;;;5030525;28;20061;-85
2023/12/07 06:59:44;;;;;;;35.78;28.60;;;5.80;99.90;;;;;;5029898;28;20087;-80
2023/12/07 07:02:10;;;;;;;33.38;27.08;;;6.80;99.90;;;;;;5011982;28;20120;-80
2023/12/07 07:04:36;;;;;;;39.55;30.30;;;6.80;99.90;;;;;;5029813;28;20030;-80
2023/12/07 07:07:01;;;;;;;41.95;31.85;;;6.80;99.90;;;;;;5029823;28;20022;-79
2023/12/07 07:09:27;;;;;;;41.97;31.20;;;6.80;99.90;;;;;;5029670;28;20515;-81
2023/12/07 07:11:53;;;;;;;29.30;24.45;;;6.70;99.90;;;;;;5030396;28;20041;-82
2023/12/07 07:14:19;;;;;;;40.08;31.15;;;6.70;99.90;;;;;;5030241;28;20025;-80
2023/12/07 07:16:44;;;;;;;41.55;31.30;;;6.70;99.90;;;;;;5029507;28;20505;-80
2023/12/07 07:19:11;;;;;;;48.80;34.72;;;6.70;99.90;;;;;;5029602;28;20029;-80
2023/12/07 07:21:36;;;;;;;48.42;34.92;;;6.70;99.90;;;;;;5029518;28;20544;-81
2023/12/07 07:24:02;;;;;;;48.95;35.42;;;6.70;99.90;;;;;;5029465;28;20056;-80
2023/12/07 07:26:27;;;;;;;33.15;28.55;;;6.70;99.90;;;;;;5029414;28;20370;-79
2023/12/07 07:28:53;;;;;;;33.17;28.38;;;6.70;99.90;;;;;;5030283;28;20033;-80
2023/12/07 07:31:19;;;;;;;46.22;33.92;;;6.70;99.90;;;;;;5029198;28;20037;-81
2023/12/07 07:33:46;;;;;;;37.55;29.90;;;6.70;99.90;;;;;;5028484;28;20098;-80
2023/12/07 07:36:13;;;;;;;43.47;33.20;;;6.70;99.90;;;;;;5029330;28;20108;-80
2023/12/07 07:38:38;;;;;;;23.33;19.75;;;6.70;99.90;;;;;;5029335;28;20068;-81
2023/12/07 07:41:04;;;;;;;33.15;27.67;;;6.70;99.90;;;;;;5029164;28;20080;-80
2023/12/07 07:43:30;;;;;;;48.55;33.05;;;6.80;99.90;;;;;;5029256;28;20017;-80
2023/12/07 07:45:56;;;;;;;22.20;19.90;;;6.70;99.90;;;;;;5029918;28;20458;-80
2023/12/07 07:48:22;;;;;;;26.77;24.13;;;6.70;99.90;;;;;;5029932;28;20021;-81
2023/12/07 07:50:47;;;;;;;34.75;28.23;;;6.70;99.90;;;;;;5029023;28;20060;-80
2023/12/07 07:53:13;;;;;;;22.42;20.20;;;6.70;99.90;;;;;;5029094;28;20494;-80
2023/12/07 07:55:39;;;;;;;27.83;24.33;;;6.70;99.90;;;;;;5028951;28;20462;-80
2023/12/07 07:58:04;;;;;;;21.80;19.65;;;6.70;99.90;;;;;;5029104;28;20025;-80
2023/12/07 08:00:30;;;;;;;22.13;20.00;;;6.70;99.90;;;;;;5029020;28;20033;-79
2023/12/07 08:02:56;;;;;;;31.55;28.08;;;6.70;99.90;;;;;;5029604;28;20505;-80
2023/12/07 08:05:22;;;;;;;18.08;16.58;;;6.70;99.90;;;;;;5029790;28;20025;-80
2023/12/07 08:07:48;;;;;;;22.27;19.98;;;6.90;99.90;;;;;;5028937;28;20105;-81
2023/12/07 08:10:13;;;;;;;20.75;18.55;;;6.70;99.90;;;;;;5028805;28;20510;-83
2023/12/07 08:12:40;;;;;;;27.38;23.08;;;6.70;99.90;;;;;;5028865;28;20359;-80
2023/12/07 08:15:10;;;;;;;20.23;15.25;;;6.70;99.90;;;;;;5028812;28;20022;-80
2023/12/07 08:17:40;;;;;;;21.92;19.80;;;6.70;99.90;;;;;;5028572;28;20045;-80
2023/12/07 08:20:07;;;;;;;34.50;24.48;;;6.70;99.90;;;;;;5028729;28;20093;-80
2023/12/07 08:22:32;;;;;;;28.20;23.10;;;6.70;99.90;;;;;;5028432;28;20181;-81
2023/12/07 08:24:59;;;;;;;24.55;22.05;;;6.70;99.90;;;;;;5028843;28;20096;-79
2023/12/07 08:27:25;;;;;;;13.20;12.10;;;6.80;99.90;;;;;;5029496;28;20018;-80
2023/12/07 08:29:51;;;;;;;21.70;19.48;;;6.80;99.90;;;;;;5028705;28;20028;-79
2023/12/07 08:32:18;;;;;;;29.13;25.48;;;6.70;99.90;;;;;;5028593;28;20037;-80
2023/12/07 08:34:44;;;;;;;37.65;29.48;;;6.90;99.90;;;;;;5028742;28;20026;-80
2023/12/07 08:37:10;;;;;;;30.35;25.38;;;6.80;99.90;;;;;;5028514;28;20030;-81
2023/12/07 08:39:36;;;;;;;28.92;25.17;;;6.30;99.90;;;;;;5028613;28;20377;-80
2023/12/07 08:42:01;;;;;;;33.10;28.50;;;6.80;99.90;;;;;;5028589;28;20028;-80
2023/12/07 08:44:27;;;;;;;28.90;25.67;;;6.80;99.90;;;;;;5029412;28;20030;-80
2023/12/07 08:46:52;;;;;;;33.97;27.33;;;6.80;99.90;;;;;;5032160;28;20025;-80
2023/12/07 08:49:18;;;;;;;21.60;19.27;;;5.50;99.90;;;;;;5032411;28;20116;-80
2023/12/07 08:51:45;;;;;;;28.80;24.60;;;6.90;99.90;;;;;;5014362;28;20418;-80
2023/12/07 08:54:10;;;;;;;33.45;27.60;;;6.80;99.90;;;;;;5032237;28;20024;-80
2023/12/07 08:56:36;;;;;;;30.17;26.65;;;6.90;99.90;;;;;;5032147;28;20401;-80
2023/12/07 08:59:02;;;;;;;21.95;19.90;;;6.90;99.90;;;;;;5032124;28;20067;-80
2023/12/07 09:01:27;;;;;;;19.63;17.77;;;6.90;99.90;;;;;;5032941;28;20522;-80
2023/12/07 09:03:53;;;;;;;26.83;24.08;;;6.90;99.90;;;;;;5032060;28;20027;-80
2023/12/07 09:06:18;;;;;;;17.70;15.93;;;6.90;99.90;;;;;;5031926;28;20037;-80
2023/12/07 09:08:44;;;;;;;28.10;24.38;;;6.90;99.90;;;;;;5032023;28;20048;-80
2023/12/07 09:11:10;;;;;;;23.73;20.50;;;6.90;99.90;;;;;;5031856;28;20021;-80
2023/12/07 09:13:35;;;;;;;29.45;24.95;;;6.90;99.90;;;;;;5031922;28;20433;-80
2023/12/07 09:16:01;;;;;;;16.02;14.60;;;6.90;99.90;;;;;;5031846;28;20048;-79
2023/12/07 09:18:27;;;;;;;20.25;18.23;;;6.90;99.90;;;;;;5032657;28;20022;-80
2023/12/07 09:20:52;;;;;;;14.10;12.80;;;6.40;99.90;;;;;;5031723;28;20462;-82
2023/12/07 09:23:18;;;;;;;16.00;10.95;;;6.90;99.90;;;;;;5031716;28;20025;-80
2023/12/07 09:25:43;;;;;;;17.35;13.43;;;6.90;99.90;;;;;;5031860;28;20462;-80
2023/12/07 09:28:09;;;;;;;17.08;15.30;;;6.90;99.90;;;;;;5031729;28;20060;-80
2023/12/07 09:30:35;;;;;;;16.90;15.27;;;6.90;99.90;;;;;;5031522;28;20461;-80
2023/12/07 09:33:04;;;;;;;14.95;12.95;;;6.90;99.90;;;;;;5032370;28;20033;-80
2023/12/07 09:35:30;;;;;;;14.93;13.55;;;6.90;99.90;;;;;;5032214;28;20028;-80
2023/12/07 09:37:55;;;;;;;13.40;12.27;;;6.90;99.90;;;;;;5031584;28;20025;-80
2023/12/07 09:40:24;;;;;;;18.40;16.70;;;4.50;99.90;;;;;;5031471;28;20871;-80
2023/12/07 09:42:50;;;;;;;26.00;22.67;;;6.90;99.90;;;;;;5031387;28;20029;-80
2023/12/07 09:45:18;;;;;;;13.60;8.52;;;6.90;99.90;;;;;;5031286;28;20032;-84
2023/12/07 09:47:47;;;;;;;18.23;16.33;;;6.90;99.90;;;;;;5031317;28;20060;-80
2023/12/07 09:50:16;;;;;;;18.90;16.25;;;6.90;99.90;;;;;;5031075;28;20025;-84
2023/12/07 09:52:42;;;;;;;29.20;26.05;;;6.90;99.90;;;;;;5031224;28;20052;-80
2023/12/07 09:55:09;;;;;;;30.70;26.08;;;6.90;99.90;;;;;;5031132;28;20036;-79
2023/12/07 09:57:36;;;;;;;26.33;23.67;;;6.90;99.90;;;;;;5029980;28;20375;-79
2023/12/07 10:00:02;;;;;;;26.38;23.48;;;6.90;99.90;;;;;;5031861;28;20021;-79
2023/12/07 10:02:28;;;;;;;20.50;18.58;;;6.90;99.90;;;;;;5030831;28;20101;-80
2023/12/07 10:05:10;;;;;;;28.25;25.08;;;7.00;99.90;;;;;;5030899;28;20091;-85
2023/12/07 10:07:39;;;;;;;37.33;30.23;;;6.90;99.90;;;;;;5030824;28;20060;-79
2023/12/07 10:10:05;;;;;;;28.35;24.25;;;6.90;99.90;;;;;;5030863;28;20490;-80
2023/12/07 10:12:35;;;;;;;28.50;25.60;;;6.90;99.90;;;;;;5031534;28;20044;-85
2023/12/07 10:15:08;;;;;;;24.60;22.15;;;7.00;99.90;;;;;;5031558;28;20022;-80
2023/12/07 10:17:48;;;;;;;25.60;23.05;;;6.90;99.90;;;;;;5031623;28;20029;-80
2023/12/07 10:20:31;;;;;;;32.30;27.27;;;6.90;99.90;;;;;;5030709;28;20022;-81
2023/12/07 10:23:05;;;;;;;31.50;26.90;;;6.90;99.90;;;;;;5030617;28;20029;-79
2023/12/07 10:25:32;;;;;;;31.77;27.58;;;6.90;99.90;;;;;;5031313;28;20549;-83
2023/12/07 10:27:58;;;;;;;4.30;3.00;;;6.90;99.90;;;;;;5030402;28;20022;-82
2023/12/07 10:30:25;;;;;;;26.58;23.73;;;6.90;99.90;;;;;;5030292;28;20026;-80
2023/12/07 10:32:51;;;;;;;30.67;26.67;;;6.90;99.90;;;;;;5030350;28;20052;-80
2023/12/07 10:35:18;;;;;;;14.38;12.98;;;6.90;99.90;;;;;;5030300;28;20401;-83
2023/12/07 10:37:44;;;;;;;21.45;15.07;;;6.90;99.90;;;;;;5030317;28;20037;-79
2023/12/07 10:40:10;;;;;;;19.75;17.85;;;6.90;99.90;;;;;;5030259;28;20026;-84
2023/12/07 10:42:37;;;;;;;21.20;19.27;;;6.90;99.90;;;;;;5030340;28;20474;-79
2023/12/07 10:45:06;;;;;;;9.57;7.90;;;7.00;99.90;;;;;;5031009;28;20021;-80
2023/12/07 10:47:38;;;;;;;6.20;2.92;;;7.00;99.90;;;;;;5030957;28;20025;-79
2023/12/07 10:50:10;;;;;;;4.50;2.50;;;7.00;99.90;;;;;;5030893;28;20433;-81
2023/12/07 10:52:51;;;;;;;4.20;2.40;;;7.00;99.90;;;;;;5030210;28;20034;-80
2023/12/07 10:55:22;;;;;;;4.28;3.17;;;7.00;99.90;;;;;;5029967;28;20061;-80
2023/12/07 10:57:48;;;;;;;7.13;4.28;;;7.00;99.90;;;;;;5011987;28;20393;-80
2023/12/07 11:00:15;;;;;;;4.53;3.20;;;7.00;99.90;;;;;;5029891;28;20096;-82
2023/12/07 11:02:42;;;;;;;9.07;3.65;;;7.00;99.90;;;;;;5029822;28;20025;-80
2023/12/07 11:05:09;;;;;;;5.07;2.88;;;7.00;99.90;;;;;;5029747;28;20394;-79
2023/12/07 11:07:59;;;;;;;2.85;2.50;;;7.10;99.90;;;;;;5030268;28;20098;-80
2023/12/07 11:10:32;;;;;;;10.60;7.57;;;7.10;99.90;;;;;;5029544;28;20029;-80
2023/12/07 11:13:14;;;;;;;3.42;2.53;;;7.00;99.90;;;;;;5029804;28;20037;-83
2023/12/07 11:15:41;;;;;;;9.38;7.45;;;7.10;99.90;;;;;;5029647;28;20018;-80
2023/12/07 11:18:06;;;;;;;3.97;2.50;;;7.10;99.90;;;;;;5030463;28;20090;-80
2023/12/07 11:20:43;;;;;;;7.40;6.68;;;7.10;99.90;;;;;;5029554;28;20420;-80
2023/12/07 11:23:10;;;;;;;5.43;4.80;;;7.20;99.90;;;;;;5029596;28;20021;-80
2023/12/07 11:25:36;;;;;;;7.13;5.13;;;7.20;99.90;;;;;;5030309;28;20436;-81
2023/12/07 11:28:04;;;;;;;7.50;5.53;;;7.20;99.90;;;;;;5029401;28;20056;-80
2023/12/07 11:30:35;;;;;;;2.65;2.30;;;7.20;99.90;;;;;;5029424;28;20031;-84
2023/12/07 11:33:04;;;;;;;7.07;3.97;;;7.20;99.90;;;;;;5029228;28;20454;-80
2023/12/07 11:35:29;;;;;;;6.45;4.53;;;7.30;99.90;;;;;;5029361;28;20029;-81
2023/12/07 11:38:09;;;;;;;9.02;6.70;;;7.30;99.90;;;;;;5029288;28;20555;-80
2023/12/07 11:40:36;;;;;;;6.28;5.68;;;7.30;99.90;;;;;;5030113;28;20069;-80
2023/12/07 11:43:05;;;;;;;4.90;3.63;;;6.30;99.90;;;;;;5029270;28;20104;-82
2023/12/07 11:45:56;;;;;;;3.03;2.83;;;6.60;99.90;;;;;;5029108;28;20105;-82
2023/12/07 11:48:22;;;;;;;12.23;8.40;;;7.40;99.90;;;;;;5026084;28;20033;-80
2023/12/07 11:50:59;;;;;;;9.32;6.50;;;7.80;99.90;;;;;;5029114;28;20034;-80
2023/12/07 11:53:27;;;;;;;8.90;6.53;;;7.50;99.90;;;;;;5011347;28;20033;-80
2023/12/07 11:55:53;;;;;;;9.57;6.67;;;7.40;99.90;;;;;;5029121;28;20025;-80
2023/12/07 11:58:19;;;;;;;9.45;7.32;;;7.50;99.90;;;;;;5011508;28;20025;-80
2023/12/07 12:00:48;;;;;;;9.02;7.00;;;7.50;99.90;;;;;;5028906;28;20424;-80
2023/12/07 12:03:14;;;;;;;;;;;7.50;99.90;;;;;;5029447;28;20033;-84
2023/12/07 12:05:41;;;;;;;14.85;13.48;;;7.60;99.90;;;;;;5029495;28;20380;-80
2023/12/07 12:08:07;;;;;;;11.95;10.85;;;7.80;99.90;;;;;;5029743;28;20034;-80
2023/12/07 12:10:33;;;;;;;10.43;9.48;;;7.50;99.90;;;;;;5028839;28;20037;-80
2023/12/07 12:13:03;;;;;;;14.05;8.43;;;7.50;99.90;;;;;;5011162;28;20112;-80
2023/12/07 12:15:29;;;;;;;10.95;7.22;;;7.60;99.90;;;;;;5028971;28;20022;-80
2023/12/07 12:17:59;;;;;;;10.02;7.90;;;7.70;99.90;;;;;;5028687;28;20505;-80
2023/12/07 12:20:25;;;;;;;9.57;6.32;;;7.60;99.90;;;;;;5030262;28;20030;-80
2023/12/07 12:22:54;;;;;;;11.07;8.82;;;7.70;99.90;;;;;;5032796;28;20029;-81
2023/12/07 12:25:31;;;;;;;11.68;10.43;;;7.70;99.90;;;;;;5032912;28;20033;-79
2023/12/07 12:28:04;;;;;;;12.02;8.95;;;7.80;99.90;;;;;;5032714;28;20132;-80
2023/12/07 12:30:31;;;;;;;14.50;11.05;;;7.80;99.90;;;;;;5032583;28;20026;-80
2023/12/07 12:32:57;;;;;;;13.77;11.57;;;7.80;99.90;;;;;;5032818;28;20026;-79
2023/12/07 12:35:23;;;;;;;13.80;11.23;;;7.80;99.90;;;;;;5032560;28;20478;-80
2023/12/07 12:37:49;;;;;;;12.05;10.43;;;7.70;99.90;;;;;;5032647;28;20033;-80